sensor_id;sensor_type;location;lat;lon;timestamp;P1;durP1;ratioP1;P2;durP2;ratioP2
23782;SDS011;12071;50.850;4.446;2022-10-12T00:01:07;14.73;;;6.32;;
23782;SDS011;12071;50.850;4.446;2022-10-12T00:03:33;19.27;;;6.57;;
23782;SDS011;12071;50.850;4.446;2022-10-12T00:06:19;14.35;;;6.43;;
23782;SDS011;12071;50.850;4.446;2022-10-12T00:08:47;15.95;;;6.65;;
23782;SDS011;12071;50.850;4.446;2022-10-12T00:11:15;13.82;;;6.50;;
23782;SDS011;12071;50.850;4.446;2022-10-12T00:13:43;10.57;;;6.20;;
23782;SDS011;12071;50.850;4.446;2022-10-12T00:16:09;14.73;;;6.50;;
23782;SDS011;12071;50.850;4.446;2022-10-12T00:18:36;11.15;;;5.95;;
23782;SDS011;12071;50.850;4.446;2022-10-12T00:21:03;13.30;;;6.03;;
23782;SDS011;12071;50.850;4.446;2022-10-12T00:23:34;12.73;;;6.25;;
23782;SDS011;12071;50.850;4.446;2022-10-12T00:26:03;13.00;;;6.50;;
23782;SDS011;12071;50.850;4.446;2022-10-12T00:28:30;14.45;;;5.88;;
23782;SDS011;12071;50.850;4.446;2022-10-12T00:30:57;12.10;;;6.30;;
23782;SDS011;12071;50.850;4.446;2022-10-12T00:33:22;14.55;;;6.10;;
23782;SDS011;12071;50.850;4.446;2022-10-12T00:35:48;14.25;;;5.97;;
23782;SDS011;12071;50.850;4.446;2022-10-12T00:38:14;12.88;;;6.05;;
23782;SDS011;12071;50.850;4.446;2022-10-12T00:40:39;14.57;;;6.45;;
23782;SDS011;12071;50.850;4.446;2022-10-12T00:43:51;13.65;;;6.47;;
23782;SDS011;12071;50.850;4.446;2022-10-12T00:46:00;13.05;;;6.25;;
23782;SDS011;12071;50.850;4.446;2022-10-12T00:48:28;14.10;;;6.38;;
23782;SDS011;12071;50.850;4.446;2022-10-12T00:50:54;13.07;;;6.47;;
23782;SDS011;12071;50.850;4.446;2022-10-12T00:53:22;17.23;;;6.13;;
23782;SDS011;12071;50.850;4.446;2022-10-12T00:55:53;10.77;;;5.90;;
23782;SDS011;12071;50.850;4.446;2022-10-12T00:58:23;13.85;;;6.47;;
23782;SDS011;12071;50.850;4.446;2022-10-12T01:00:49;13.63;;;6.07;;
23782;SDS011;12071;50.850;4.446;2022-10-12T01:03:16;13.45;;;6.40;;
23782;SDS011;12071;50.850;4.446;2022-10-12T01:05:44;12.80;;;5.80;;
23782;SDS011;12071;50.850;4.446;2022-10-12T01:08:11;11.02;;;5.90;;
23782;SDS011;12071;50.850;4.446;2022-10-12T01:10:37;17.50;;;6.22;;
23782;SDS011;12071;50.850;4.446;2022-10-12T01:13:02;13.10;;;6.07;;
23782;SDS011;12071;50.850;4.446;2022-10-12T01:15:32;12.68;;;5.60;;
23782;SDS011;12071;50.850;4.446;2022-10-12T01:34:52;18.50;;;6.55;;
23782;SDS011;12071;50.850;4.446;2022-10-12T01:40:19;15.90;;;5.45;;
23782;SDS011;12071;50.850;4.446;2022-10-12T01:42:53;11.27;;;5.47;;
23782;SDS011;12071;50.850;4.446;2022-10-12T01:45:21;12.85;;;5.82;;
23782;SDS011;12071;50.850;4.446;2022-10-12T01:47:48;12.35;;;5.65;;
23782;SDS011;12071;50.850;4.446;2022-10-12T01:50:16;8.57;;;5.43;;
23782;SDS011;12071;50.850;4.446;2022-10-12T01:55:49;13.02;;;6.07;;
23782;SDS011;12071;50.850;4.446;2022-10-12T01:59:23;12.20;;;5.55;;
23782;SDS011;12071;50.850;4.446;2022-10-12T02:01:47;11.20;;;5.80;;
23782;SDS011;12071;50.850;4.446;2022-10-12T02:04:27;12.38;;;6.05;;
23782;SDS011;12071;50.850;4.446;2022-10-12T02:07:03;12.90;;;5.85;;
23782;SDS011;12071;50.850;4.446;2022-10-12T02:09:35;11.82;;;5.22;;
23782;SDS011;12071;50.850;4.446;2022-10-12T02:12:03;10.68;;;5.53;;
23782;SDS011;12071;50.850;4.446;2022-10-12T02:14:51;14.75;;;6.05;;
23782;SDS011;12071;50.850;4.446;2022-10-12T02:17:20;17.45;;;5.82;;
23782;SDS011;12071;50.850;4.446;2022-10-12T02:19:49;10.82;;;5.80;;
23782;SDS011;12071;50.850;4.446;2022-10-12T02:22:17;12.13;;;5.63;;
23782;SDS011;12071;50.850;4.446;2022-10-12T02:24:45;13.65;;;5.80;;
23782;SDS011;12071;50.850;4.446;2022-10-12T02:27:13;11.30;;;5.65;;
23782;SDS011;12071;50.850;4.446;2022-10-12T02:29:42;11.63;;;5.97;;
23782;SDS011;12071;50.850;4.446;2022-10-12T02:32:20;11.07;;;5.47;;
23782;SDS011;12071;50.850;4.446;2022-10-12T02:35:12;10.80;;;5.30;;
23782;SDS011;12071;50.850;4.446;2022-10-12T02:43:14;11.57;;;5.45;;
23782;SDS011;12071;50.850;4.446;2022-10-12T02:45:47;12.38;;;5.38;;
23782;SDS011;12071;50.850;4.446;2022-10-12T02:48:15;10.40;;;5.28;;
23782;SDS011;12071;50.850;4.446;2022-10-12T02:50:47;11.68;;;4.60;;
23782;SDS011;12071;50.850;4.446;2022-10-12T02:53:16;11.73;;;5.10;;
23782;SDS011;12071;50.850;4.446;2022-10-12T02:55:52;10.05;;;4.75;;
23782;SDS011;12071;50.850;4.446;2022-10-12T02:58:23;14.88;;;5.70;;
23782;SDS011;12071;50.850;4.446;2022-10-12T03:00:50;10.15;;;4.88;;
23782;SDS011;12071;50.850;4.446;2022-10-12T03:03:15;10.95;;;5.03;;
23782;SDS011;12071;50.850;4.446;2022-10-12T03:05:41;15.13;;;5.80;;
23782;SDS011;12071;50.850;4.446;2022-10-12T03:08:07;10.73;;;5.43;;
23782;SDS011;12071;50.850;4.446;2022-10-12T03:10:32;8.95;;;4.78;;
23782;SDS011;12071;50.850;4.446;2022-10-12T03:12:58;11.57;;;4.43;;
23782;SDS011;12071;50.850;4.446;2022-10-12T03:15:23;10.13;;;5.07;;
23782;SDS011;12071;50.850;4.446;2022-10-12T03:17:49;11.02;;;4.80;;
23782;SDS011;12071;50.850;4.446;2022-10-12T03:20:15;10.55;;;4.80;;
23782;SDS011;12071;50.850;4.446;2022-10-12T03:22:40;10.27;;;5.13;;
23782;SDS011;12071;50.850;4.446;2022-10-12T03:25:06;11.30;;;4.82;;
23782;SDS011;12071;50.850;4.446;2022-10-12T03:27:32;10.73;;;4.57;;
23782;SDS011;12071;50.850;4.446;2022-10-12T03:29:57;9.98;;;4.95;;
23782;SDS011;12071;50.850;4.446;2022-10-12T03:32:23;13.90;;;4.90;;
23782;SDS011;12071;50.850;4.446;2022-10-12T03:34:48;11.93;;;5.35;;
23782;SDS011;12071;50.850;4.446;2022-10-12T03:37:14;9.52;;;5.22;;
23782;SDS011;12071;50.850;4.446;2022-10-12T03:39:39;11.57;;;5.40;;
23782;SDS011;12071;50.850;4.446;2022-10-12T03:42:05;11.90;;;5.15;;
23782;SDS011;12071;50.850;4.446;2022-10-12T03:44:30;9.38;;;4.78;;
23782;SDS011;12071;50.850;4.446;2022-10-12T03:46:56;10.15;;;5.20;;
23782;SDS011;12071;50.850;4.446;2022-10-12T03:49:22;11.95;;;5.20;;
23782;SDS011;12071;50.850;4.446;2022-10-12T03:51:47;10.68;;;5.60;;
23782;SDS011;12071;50.850;4.446;2022-10-12T03:54:13;12.32;;;5.93;;
23782;SDS011;12071;50.850;4.446;2022-10-12T03:56:38;12.32;;;5.50;;
23782;SDS011;12071;50.850;4.446;2022-10-12T03:59:04;11.20;;;6.13;;
23782;SDS011;12071;50.850;4.446;2022-10-12T04:01:30;12.02;;;6.20;;
23782;SDS011;12071;50.850;4.446;2022-10-12T04:03:55;11.30;;;5.85;;
23782;SDS011;12071;50.850;4.446;2022-10-12T04:06:21;10.75;;;5.97;;
23782;SDS011;12071;50.850;4.446;2022-10-12T04:08:47;13.20;;;6.15;;
23782;SDS011;12071;50.850;4.446;2022-10-12T04:11:12;11.32;;;6.13;;
23782;SDS011;12071;50.850;4.446;2022-10-12T04:13:38;12.88;;;6.40;;
23782;SDS011;12071;50.850;4.446;2022-10-12T04:16:04;11.80;;;5.40;;
23782;SDS011;12071;50.850;4.446;2022-10-12T04:18:31;12.02;;;5.38;;
23782;SDS011;12071;50.850;4.446;2022-10-12T04:20:57;11.88;;;5.70;;
23782;SDS011;12071;50.850;4.446;2022-10-12T04:23:25;9.77;;;5.43;;
23782;SDS011;12071;50.850;4.446;2022-10-12T04:25:51;12.43;;;5.43;;
23782;SDS011;12071;50.850;4.446;2022-10-12T04:28:17;12.10;;;5.68;;
23782;SDS011;12071;50.850;4.446;2022-10-12T04:30:43;10.35;;;5.78;;
23782;SDS011;12071;50.850;4.446;2022-10-12T04:33:09;12.23;;;6.00;;
23782;SDS011;12071;50.850;4.446;2022-10-12T04:35:34;12.13;;;7.97;;
23782;SDS011;12071;50.850;4.446;2022-10-12T04:38:00;10.45;;;5.88;;
23782;SDS011;12071;50.850;4.446;2022-10-12T04:40:25;9.90;;;5.70;;
23782;SDS011;12071;50.850;4.446;2022-10-12T04:42:51;15.73;;;7.55;;
23782;SDS011;12071;50.850;4.446;2022-10-12T04:45:17;14.27;;;6.43;;
23782;SDS011;12071;50.850;4.446;2022-10-12T04:47:42;14.05;;;7.13;;
23782;SDS011;12071;50.850;4.446;2022-10-12T04:50:08;16.17;;;6.35;;
23782;SDS011;12071;50.850;4.446;2022-10-12T04:52:33;18.90;;;6.47;;
23782;SDS011;12071;50.850;4.446;2022-10-12T04:54:59;15.27;;;6.07;;
23782;SDS011;12071;50.850;4.446;2022-10-12T04:57:25;13.20;;;6.57;;
23782;SDS011;12071;50.850;4.446;2022-10-12T04:59:50;10.35;;;6.03;;
23782;SDS011;12071;50.850;4.446;2022-10-12T05:02:16;10.30;;;6.18;;
23782;SDS011;12071;50.850;4.446;2022-10-12T05:04:41;12.25;;;6.32;;
23782;SDS011;12071;50.850;4.446;2022-10-12T05:07:07;9.48;;;5.88;;
23782;SDS011;12071;50.850;4.446;2022-10-12T05:09:32;12.32;;;6.38;;
23782;SDS011;12071;50.850;4.446;2022-10-12T05:11:58;12.38;;;6.65;;
23782;SDS011;12071;50.850;4.446;2022-10-12T05:14:23;13.18;;;6.70;;
23782;SDS011;12071;50.850;4.446;2022-10-12T05:16:49;14.82;;;6.50;;
23782;SDS011;12071;50.850;4.446;2022-10-12T05:19:14;12.95;;;6.40;;
23782;SDS011;12071;50.850;4.446;2022-10-12T05:21:40;16.30;;;6.68;;
23782;SDS011;12071;50.850;4.446;2022-10-12T05:24:06;14.80;;;7.00;;
23782;SDS011;12071;50.850;4.446;2022-10-12T05:26:32;14.27;;;6.63;;
23782;SDS011;12071;50.850;4.446;2022-10-12T05:28:58;16.80;;;6.15;;
23782;SDS011;12071;50.850;4.446;2022-10-12T05:31:24;14.63;;;6.75;;
23782;SDS011;12071;50.850;4.446;2022-10-12T05:33:49;12.38;;;6.30;;
23782;SDS011;12071;50.850;4.446;2022-10-12T05:36:15;14.60;;;6.88;;
23782;SDS011;12071;50.850;4.446;2022-10-12T05:38:41;16.92;;;7.47;;
23782;SDS011;12071;50.850;4.446;2022-10-12T05:41:06;14.75;;;6.18;;
23782;SDS011;12071;50.850;4.446;2022-10-12T05:43:32;15.30;;;7.43;;
23782;SDS011;12071;50.850;4.446;2022-10-12T05:45:57;18.25;;;7.47;;
23782;SDS011;12071;50.850;4.446;2022-10-12T05:48:23;20.48;;;8.25;;
23782;SDS011;12071;50.850;4.446;2022-10-12T05:50:52;18.33;;;8.50;;
23782;SDS011;12071;50.850;4.446;2022-10-12T05:53:28;14.57;;;7.18;;
23782;SDS011;12071;50.850;4.446;2022-10-12T05:55:55;15.82;;;8.02;;
23782;SDS011;12071;50.850;4.446;2022-10-12T05:58:22;14.43;;;7.45;;
23782;SDS011;12071;50.850;4.446;2022-10-12T06:00:49;16.70;;;7.72;;
23782;SDS011;12071;50.850;4.446;2022-10-12T06:03:15;16.30;;;6.85;;
23782;SDS011;12071;50.850;4.446;2022-10-12T06:05:41;12.77;;;7.95;;
23782;SDS011;12071;50.850;4.446;2022-10-12T06:08:07;12.85;;;7.10;;
23782;SDS011;12071;50.850;4.446;2022-10-12T06:10:36;13.48;;;7.68;;
23782;SDS011;12071;50.850;4.446;2022-10-12T06:13:08;16.95;;;8.40;;
23782;SDS011;12071;50.850;4.446;2022-10-12T06:15:34;14.40;;;8.45;;
23782;SDS011;12071;50.850;4.446;2022-10-12T06:18:00;23.75;;;9.75;;
23782;SDS011;12071;50.850;4.446;2022-10-12T06:20:26;23.33;;;8.63;;
23782;SDS011;12071;50.850;4.446;2022-10-12T06:22:52;22.73;;;9.07;;
23782;SDS011;12071;50.850;4.446;2022-10-12T06:25:17;22.17;;;9.18;;
23782;SDS011;12071;50.850;4.446;2022-10-12T06:27:43;27.27;;;9.13;;
23782;SDS011;12071;50.850;4.446;2022-10-12T06:30:10;26.63;;;9.75;;
23782;SDS011;12071;50.850;4.446;2022-10-12T06:32:36;26.42;;;8.98;;
23782;SDS011;12071;50.850;4.446;2022-10-12T06:35:02;24.13;;;10.15;;
23782;SDS011;12071;50.850;4.446;2022-10-12T06:37:28;27.48;;;10.55;;
23782;SDS011;12071;50.850;4.446;2022-10-12T06:39:54;29.35;;;11.07;;
23782;SDS011;12071;50.850;4.446;2022-10-12T06:42:19;28.73;;;10.45;;
23782;SDS011;12071;50.850;4.446;2022-10-12T06:44:45;31.70;;;10.93;;
23782;SDS011;12071;50.850;4.446;2022-10-12T06:47:11;29.50;;;10.90;;
23782;SDS011;12071;50.850;4.446;2022-10-12T06:49:36;25.08;;;10.65;;
23782;SDS011;12071;50.850;4.446;2022-10-12T06:52:02;31.80;;;10.35;;
23782;SDS011;12071;50.850;4.446;2022-10-12T06:54:28;21.98;;;10.00;;
23782;SDS011;12071;50.850;4.446;2022-10-12T06:56:54;28.90;;;11.68;;
23782;SDS011;12071;50.850;4.446;2022-10-12T06:59:19;27.20;;;11.70;;
23782;SDS011;12071;50.850;4.446;2022-10-12T07:01:47;30.27;;;12.52;;
23782;SDS011;12071;50.850;4.446;2022-10-12T07:04:15;25.25;;;12.13;;
23782;SDS011;12071;50.850;4.446;2022-10-12T07:06:41;32.53;;;11.57;;
23782;SDS011;12071;50.850;4.446;2022-10-12T07:09:07;30.85;;;13.20;;
23782;SDS011;12071;50.850;4.446;2022-10-12T07:11:33;38.55;;;12.98;;
23782;SDS011;12071;50.850;4.446;2022-10-12T07:13:59;23.25;;;11.63;;
23782;SDS011;12071;50.850;4.446;2022-10-12T07:16:24;29.20;;;11.38;;
23782;SDS011;12071;50.850;4.446;2022-10-12T07:18:53;23.67;;;11.52;;
23782;SDS011;12071;50.850;4.446;2022-10-12T07:21:18;23.55;;;11.15;;
23782;SDS011;12071;50.850;4.446;2022-10-12T07:23:44;26.77;;;11.13;;
23782;SDS011;12071;50.850;4.446;2022-10-12T07:26:09;24.25;;;11.50;;
23782;SDS011;12071;50.850;4.446;2022-10-12T07:28:35;23.30;;;11.25;;
23782;SDS011;12071;50.850;4.446;2022-10-12T07:31:05;25.05;;;11.65;;
23782;SDS011;12071;50.850;4.446;2022-10-12T07:33:32;25.08;;;11.60;;
23782;SDS011;12071;50.850;4.446;2022-10-12T07:35:58;29.13;;;11.85;;
23782;SDS011;12071;50.850;4.446;2022-10-12T07:38:25;26.83;;;12.23;;
23782;SDS011;12071;50.850;4.446;2022-10-12T07:40:51;28.30;;;12.13;;
23782;SDS011;12071;50.850;4.446;2022-10-12T07:43:17;28.25;;;12.50;;
23782;SDS011;12071;50.850;4.446;2022-10-12T07:45:42;26.02;;;12.45;;
23782;SDS011;12071;50.850;4.446;2022-10-12T07:48:08;25.05;;;12.00;;
23782;SDS011;12071;50.850;4.446;2022-10-12T07:50:34;22.30;;;11.55;;
23782;SDS011;12071;50.850;4.446;2022-10-12T07:53:00;22.48;;;11.45;;
23782;SDS011;12071;50.850;4.446;2022-10-12T07:55:25;22.15;;;10.85;;
23782;SDS011;12071;50.850;4.446;2022-10-12T07:57:51;26.80;;;10.82;;
23782;SDS011;12071;50.850;4.446;2022-10-12T08:00:17;22.30;;;9.93;;
23782;SDS011;12071;50.850;4.446;2022-10-12T08:02:44;19.38;;;9.63;;
23782;SDS011;12071;50.850;4.446;2022-10-12T08:05:10;24.75;;;8.90;;
23782;SDS011;12071;50.850;4.446;2022-10-12T08:07:36;22.33;;;9.55;;
23782;SDS011;12071;50.850;4.446;2022-10-12T08:10:01;21.60;;;9.57;;
23782;SDS011;12071;50.850;4.446;2022-10-12T08:12:27;19.50;;;9.05;;
23782;SDS011;12071;50.850;4.446;2022-10-12T08:14:53;23.67;;;9.52;;
23782;SDS011;12071;50.850;4.446;2022-10-12T08:17:18;20.02;;;9.07;;
23782;SDS011;12071;50.850;4.446;2022-10-12T08:19:44;22.10;;;9.27;;
23782;SDS011;12071;50.850;4.446;2022-10-12T08:22:09;21.20;;;9.38;;
23782;SDS011;12071;50.850;4.446;2022-10-12T08:24:36;19.50;;;8.65;;
23782;SDS011;12071;50.850;4.446;2022-10-12T08:27:02;18.15;;;9.07;;
23782;SDS011;12071;50.850;4.446;2022-10-12T08:29:28;17.38;;;8.57;;
23782;SDS011;12071;50.850;4.446;2022-10-12T08:31:53;19.98;;;8.45;;
23782;SDS011;12071;50.850;4.446;2022-10-12T08:34:19;20.90;;;8.00;;
23782;SDS011;12071;50.850;4.446;2022-10-12T08:36:45;24.27;;;8.63;;
23782;SDS011;12071;50.850;4.446;2022-10-12T08:39:10;17.30;;;8.25;;
23782;SDS011;12071;50.850;4.446;2022-10-12T08:41:42;27.30;;;9.55;;
23782;SDS011;12071;50.850;4.446;2022-10-12T08:44:39;20.40;;;7.75;;
23782;SDS011;12071;50.850;4.446;2022-10-12T08:47:13;23.05;;;8.05;;
23782;SDS011;12071;50.850;4.446;2022-10-12T08:49:43;23.52;;;8.02;;
23782;SDS011;12071;50.850;4.446;2022-10-12T08:52:20;20.80;;;7.57;;
23782;SDS011;12071;50.850;4.446;2022-10-12T08:54:50;22.52;;;8.02;;
23782;SDS011;12071;50.850;4.446;2022-10-12T08:57:17;19.65;;;7.30;;
23782;SDS011;12071;50.850;4.446;2022-10-12T08:59:44;22.55;;;7.75;;
23782;SDS011;12071;50.850;4.446;2022-10-12T09:04:43;17.50;;;6.93;;
23782;SDS011;12071;50.850;4.446;2022-10-12T09:07:32;17.40;;;7.05;;
23782;SDS011;12071;50.850;4.446;2022-10-12T09:15:31;21.73;;;7.45;;
23782;SDS011;12071;50.850;4.446;2022-10-12T09:17:59;15.00;;;6.32;;
23782;SDS011;12071;50.850;4.446;2022-10-12T09:20:30;18.33;;;6.50;;
23782;SDS011;12071;50.850;4.446;2022-10-12T09:23:02;19.65;;;5.47;;
23782;SDS011;12071;50.850;4.446;2022-10-12T09:25:43;11.80;;;4.70;;
23782;SDS011;12071;50.850;4.446;2022-10-12T09:30:44;16.33;;;4.93;;
23782;SDS011;12071;50.850;4.446;2022-10-12T09:33:26;12.13;;;5.22;;
23782;SDS011;12071;50.850;4.446;2022-10-12T09:35:57;11.77;;;4.80;;
23782;SDS011;12071;50.850;4.446;2022-10-12T09:38:23;16.20;;;5.20;;
23782;SDS011;12071;50.850;4.446;2022-10-12T09:40:48;15.30;;;4.82;;
23782;SDS011;12071;50.850;4.446;2022-10-12T09:43:14;13.15;;;5.07;;
23782;SDS011;12071;50.850;4.446;2022-10-12T09:45:40;14.18;;;3.92;;
23782;SDS011;12071;50.850;4.446;2022-10-12T09:50:55;19.20;;;4.53;;
23782;SDS011;12071;50.850;4.446;2022-10-12T09:53:30;13.00;;;4.75;;
23782;SDS011;12071;50.850;4.446;2022-10-12T09:55:58;14.70;;;4.55;;
23782;SDS011;12071;50.850;4.446;2022-10-12T09:58:53;9.82;;;4.13;;
23782;SDS011;12071;50.850;4.446;2022-10-12T10:01:32;9.98;;;3.92;;
23782;SDS011;12071;50.850;4.446;2022-10-12T10:04:15;12.80;;;4.18;;
23782;SDS011;12071;50.850;4.446;2022-10-12T10:06:48;15.05;;;4.75;;
23782;SDS011;12071;50.850;4.446;2022-10-12T10:09:28;14.38;;;4.53;;
23782;SDS011;12071;50.850;4.446;2022-10-12T10:12:10;12.75;;;4.40;;
23782;SDS011;12071;50.850;4.446;2022-10-12T10:14:40;13.93;;;4.47;;
23782;SDS011;12071;50.850;4.446;2022-10-12T10:17:07;12.50;;;4.85;;
23782;SDS011;12071;50.850;4.446;2022-10-12T10:19:34;58.22;;;9.40;;
23782;SDS011;12071;50.850;4.446;2022-10-12T10:22:04;13.40;;;3.97;;
23782;SDS011;12071;50.850;4.446;2022-10-12T10:24:31;11.63;;;4.07;;
23782;SDS011;12071;50.850;4.446;2022-10-12T10:27:01;12.88;;;4.50;;
23782;SDS011;12071;50.850;4.446;2022-10-12T10:35:16;12.00;;;3.47;;
23782;SDS011;12071;50.850;4.446;2022-10-12T10:37:53;12.25;;;3.80;;
23782;SDS011;12071;50.850;4.446;2022-10-12T10:40:30;11.65;;;4.35;;
23782;SDS011;12071;50.850;4.446;2022-10-12T10:42:58;10.05;;;4.10;;
23782;SDS011;12071;50.850;4.446;2022-10-12T10:45:37;10.50;;;4.07;;
23782;SDS011;12071;50.850;4.446;2022-10-12T10:48:08;12.93;;;3.70;;
23782;SDS011;12071;50.850;4.446;2022-10-12T10:50:38;13.10;;;3.60;;
23782;SDS011;12071;50.850;4.446;2022-10-12T10:56:20;10.10;;;3.25;;
23782;SDS011;12071;50.850;4.446;2022-10-12T10:58:54;12.55;;;3.53;;
23782;SDS011;12071;50.850;4.446;2022-10-12T11:01:26;11.60;;;3.67;;
23782;SDS011;12071;50.850;4.446;2022-10-12T11:04:20;11.05;;;4.30;;
23782;SDS011;12071;50.850;4.446;2022-10-12T11:06:51;13.82;;;3.78;;
23782;SDS011;12071;50.850;4.446;2022-10-12T11:09:28;13.77;;;4.35;;
23782;SDS011;12071;50.850;4.446;2022-10-12T11:14:52;10.48;;;3.75;;
23782;SDS011;12071;50.850;4.446;2022-10-12T11:17:22;16.45;;;4.03;;
23782;SDS011;12071;50.850;4.446;2022-10-12T11:22:52;11.77;;;4.07;;
23782;SDS011;12071;50.850;4.446;2022-10-12T11:27:55;10.10;;;3.92;;
23782;SDS011;12071;50.850;4.446;2022-10-12T11:30:22;13.48;;;3.78;;
23782;SDS011;12071;50.850;4.446;2022-10-12T11:32:52;7.90;;;3.10;;
23782;SDS011;12071;50.850;4.446;2022-10-12T11:35:31;10.77;;;3.60;;
23782;SDS011;12071;50.850;4.446;2022-10-12T11:39:00;12.68;;;3.38;;
23782;SDS011;12071;50.850;4.446;2022-10-12T11:41:00;10.77;;;4.00;;
23782;SDS011;12071;50.850;4.446;2022-10-12T11:43:39;12.43;;;4.30;;
23782;SDS011;12071;50.850;4.446;2022-10-12T11:46:12;11.48;;;3.58;;
23782;SDS011;12071;50.850;4.446;2022-10-12T11:48:41;10.40;;;4.10;;
23782;SDS011;12071;50.850;4.446;2022-10-12T11:51:09;11.93;;;3.58;;
23782;SDS011;12071;50.850;4.446;2022-10-12T11:53:45;16.00;;;4.32;;
23782;SDS011;12071;50.850;4.446;2022-10-12T11:58:48;5.95;;;3.33;;
23782;SDS011;12071;50.850;4.446;2022-10-12T12:07:05;10.50;;;3.80;;
23782;SDS011;12071;50.850;4.446;2022-10-12T12:09:49;6.72;;;3.53;;
23782;SDS011;12071;50.850;4.446;2022-10-12T12:19:45;10.95;;;3.63;;
23782;SDS011;12071;50.850;4.446;2022-10-12T12:22:26;9.00;;;3.72;;
23782;SDS011;12071;50.850;4.446;2022-10-12T12:24:55;11.87;;;3.67;;
23782;SDS011;12071;50.850;4.446;2022-10-12T12:29:55;8.25;;;3.63;;
23782;SDS011;12071;50.850;4.446;2022-10-12T12:32:24;11.80;;;4.00;;
23782;SDS011;12071;50.850;4.446;2022-10-12T12:35:03;8.95;;;3.72;;
23782;SDS011;12071;50.850;4.446;2022-10-12T12:37:30;7.57;;;3.78;;
23782;SDS011;12071;50.850;4.446;2022-10-12T12:39:58;10.23;;;4.25;;
23782;SDS011;12071;50.850;4.446;2022-10-12T12:42:25;11.35;;;4.57;;
23782;SDS011;12071;50.850;4.446;2022-10-12T12:44:56;9.57;;;4.20;;
23782;SDS011;12071;50.850;4.446;2022-10-12T12:47:36;11.23;;;3.85;;
23782;SDS011;12071;50.850;4.446;2022-10-12T12:53:20;11.25;;;4.18;;
23782;SDS011;12071;50.850;4.446;2022-10-12T12:56:01;7.63;;;3.38;;
23782;SDS011;12071;50.850;4.446;2022-10-12T13:10:57;5.57;;;2.83;;
23782;SDS011;12071;50.850;4.446;2022-10-12T13:13:59;6.60;;;3.50;;
23782;SDS011;12071;50.850;4.446;2022-10-12T13:19:39;8.85;;;2.97;;
23782;SDS011;12071;50.850;4.446;2022-10-12T13:22:11;9.88;;;3.28;;
23782;SDS011;12071;50.850;4.446;2022-10-12T13:24:44;6.35;;;2.60;;
23782;SDS011;12071;50.850;4.446;2022-10-12T13:27:27;5.70;;;2.55;;
23782;SDS011;12071;50.850;4.446;2022-10-12T13:32:37;7.70;;;2.60;;
23782;SDS011;12071;50.850;4.446;2022-10-12T13:35:12;8.57;;;2.97;;
23782;SDS011;12071;50.850;4.446;2022-10-12T13:37:41;8.48;;;3.40;;
23782;SDS011;12071;50.850;4.446;2022-10-12T13:40:25;7.25;;;2.85;;
23782;SDS011;12071;50.850;4.446;2022-10-12T13:42:52;7.72;;;2.40;;
23782;SDS011;12071;50.850;4.446;2022-10-12T13:45:17;8.32;;;3.33;;
23782;SDS011;12071;50.850;4.446;2022-10-12T13:47:44;15.55;;;4.25;;
23782;SDS011;12071;50.850;4.446;2022-10-12T13:50:19;9.68;;;3.00;;
23782;SDS011;12071;50.850;4.446;2022-10-12T13:52:52;8.98;;;3.53;;
23782;SDS011;12071;50.850;4.446;2022-10-12T13:55:23;6.65;;;3.80;;
23782;SDS011;12071;50.850;4.446;2022-10-12T13:57:50;10.02;;;4.03;;
23782;SDS011;12071;50.850;4.446;2022-10-12T14:00:17;9.85;;;3.50;;
23782;SDS011;12071;50.850;4.446;2022-10-12T14:02:54;10.13;;;3.30;;
23782;SDS011;12071;50.850;4.446;2022-10-12T14:05:23;10.40;;;3.38;;
23782;SDS011;12071;50.850;4.446;2022-10-12T14:07:50;10.48;;;3.53;;
23782;SDS011;12071;50.850;4.446;2022-10-12T14:10:27;11.70;;;3.83;;
23782;SDS011;12071;50.850;4.446;2022-10-12T14:12:55;9.60;;;3.13;;
23782;SDS011;12071;50.850;4.446;2022-10-12T14:15:22;10.40;;;4.13;;
23782;SDS011;12071;50.850;4.446;2022-10-12T14:17:51;7.35;;;3.28;;
23782;SDS011;12071;50.850;4.446;2022-10-12T14:20:29;10.52;;;3.72;;
23782;SDS011;12071;50.850;4.446;2022-10-12T14:23:17;7.45;;;3.05;;
23782;SDS011;12071;50.850;4.446;2022-10-12T14:25:51;9.10;;;3.38;;
23782;SDS011;12071;50.850;4.446;2022-10-12T14:28:32;9.38;;;3.30;;
23782;SDS011;12071;50.850;4.446;2022-10-12T14:31:01;7.20;;;3.00;;
23782;SDS011;12071;50.850;4.446;2022-10-12T14:33:27;11.32;;;3.30;;
23782;SDS011;12071;50.850;4.446;2022-10-12T14:36:13;11.15;;;3.30;;
23782;SDS011;12071;50.850;4.446;2022-10-12T14:38:45;10.85;;;3.25;;
23782;SDS011;12071;50.850;4.446;2022-10-12T14:46:34;10.65;;;3.00;;
23782;SDS011;12071;50.850;4.446;2022-10-12T14:49:02;14.00;;;3.45;;
23782;SDS011;12071;50.850;4.446;2022-10-12T14:51:28;9.88;;;3.13;;
23782;SDS011;12071;50.850;4.446;2022-10-12T14:54:00;8.32;;;3.45;;
23782;SDS011;12071;50.850;4.446;2022-10-12T14:56:27;9.27;;;3.15;;
23782;SDS011;12071;50.850;4.446;2022-10-12T14:58:53;7.15;;;3.22;;
23782;SDS011;12071;50.850;4.446;2022-10-12T15:01:19;10.75;;;3.10;;
23782;SDS011;12071;50.850;4.446;2022-10-12T15:03:45;7.55;;;3.40;;
23782;SDS011;12071;50.850;4.446;2022-10-12T15:06:12;7.40;;;3.17;;
23782;SDS011;12071;50.850;4.446;2022-10-12T15:08:39;11.60;;;3.20;;
23782;SDS011;12071;50.850;4.446;2022-10-12T15:11:04;7.70;;;3.72;;
23782;SDS011;12071;50.850;4.446;2022-10-12T15:13:30;14.85;;;3.70;;
23782;SDS011;12071;50.850;4.446;2022-10-12T15:15:56;12.32;;;4.10;;
23782;SDS011;12071;50.850;4.446;2022-10-12T15:18:25;16.35;;;3.72;;
23782;SDS011;12071;50.850;4.446;2022-10-12T15:20:51;8.65;;;3.42;;
23782;SDS011;12071;50.850;4.446;2022-10-12T15:23:17;9.30;;;3.58;;
23782;SDS011;12071;50.850;4.446;2022-10-12T15:25:50;8.60;;;3.35;;
23782;SDS011;12071;50.850;4.446;2022-10-12T15:28:18;13.10;;;3.92;;
23782;SDS011;12071;50.850;4.446;2022-10-12T15:30:44;12.18;;;4.20;;
23782;SDS011;12071;50.850;4.446;2022-10-12T15:33:10;11.45;;;3.47;;
23782;SDS011;12071;50.850;4.446;2022-10-12T15:35:37;7.65;;;3.35;;
23782;SDS011;12071;50.850;4.446;2022-10-12T15:38:03;9.02;;;3.60;;
23782;SDS011;12071;50.850;4.446;2022-10-12T15:40:29;11.30;;;4.68;;
23782;SDS011;12071;50.850;4.446;2022-10-12T15:42:56;9.73;;;3.70;;
23782;SDS011;12071;50.850;4.446;2022-10-12T15:45:26;12.20;;;4.05;;
23782;SDS011;12071;50.850;4.446;2022-10-12T15:47:57;9.68;;;4.13;;
23782;SDS011;12071;50.850;4.446;2022-10-12T15:50:25;10.40;;;3.85;;
23782;SDS011;12071;50.850;4.446;2022-10-12T15:52:53;11.68;;;4.38;;
23782;SDS011;12071;50.850;4.446;2022-10-12T15:55:21;16.35;;;6.82;;
23782;SDS011;12071;50.850;4.446;2022-10-12T16:00:18;13.68;;;5.38;;
23782;SDS011;12071;50.850;4.446;2022-10-12T16:02:49;11.90;;;4.80;;
23782;SDS011;12071;50.850;4.446;2022-10-12T16:05:17;10.77;;;5.00;;
23782;SDS011;12071;50.850;4.446;2022-10-12T16:07:45;15.45;;;4.60;;
23782;SDS011;12071;50.850;4.446;2022-10-12T16:10:11;12.15;;;5.30;;
23782;SDS011;12071;50.850;4.446;2022-10-12T16:12:42;15.40;;;5.35;;
23782;SDS011;12071;50.850;4.446;2022-10-12T16:15:10;15.02;;;5.50;;
23782;SDS011;12071;50.850;4.446;2022-10-12T16:17:37;11.20;;;4.95;;
23782;SDS011;12071;50.850;4.446;2022-10-12T16:20:03;12.43;;;5.68;;
23782;SDS011;12071;50.850;4.446;2022-10-12T16:22:29;16.70;;;5.63;;
23782;SDS011;12071;50.850;4.446;2022-10-12T16:24:54;14.60;;;4.60;;
23782;SDS011;12071;50.850;4.446;2022-10-12T16:27:20;11.73;;;4.55;;
23782;SDS011;12071;50.850;4.446;2022-10-12T16:29:46;13.27;;;5.00;;
23782;SDS011;12071;50.850;4.446;2022-10-12T16:32:11;15.35;;;5.57;;
23782;SDS011;12071;50.850;4.446;2022-10-12T16:34:37;9.55;;;5.50;;